sensor_id;sensor_type;location;lat;lon;timestamp;P1;durP1;ratioP1;P2;durP2;ratioP2
35518;SDS011;21627;48.216;16.482;2022-07-23T00:00:20;14.55;;;5.78;;
35518;SDS011;21627;48.216;16.482;2022-07-23T00:02:47;12.80;;;5.63;;
35518;SDS011;21627;48.216;16.482;2022-07-23T00:05:15;9.13;;;6.03;;
35518;SDS011;21627;48.216;16.482;2022-07-23T00:07:42;10.85;;;5.65;;
35518;SDS011;21627;48.216;16.482;2022-07-23T00:10:09;8.43;;;5.70;;
35518;SDS011;21627;48.216;16.482;2022-07-23T00:12:37;17.13;;;5.55;;
35518;SDS011;21627;48.216;16.482;2022-07-23T00:15:17;9.85;;;7.00;;
35518;SDS011;21627;48.216;16.482;2022-07-23T00:17:44;13.23;;;5.70;;
35518;SDS011;21627;48.216;16.482;2022-07-23T00:20:12;8.35;;;5.60;;
35518;SDS011;21627;48.216;16.482;2022-07-23T00:25:14;13.50;;;5.97;;
35518;SDS011;21627;48.216;16.482;2022-07-23T00:27:58;9.63;;;5.25;;
35518;SDS011;21627;48.216;16.482;2022-07-23T00:30:26;15.63;;;5.72;;
35518;SDS011;21627;48.216;16.482;2022-07-23T00:32:57;7.50;;;5.68;;
35518;SDS011;21627;48.216;16.482;2022-07-23T00:35:28;16.60;;;6.47;;
35518;SDS011;21627;48.216;16.482;2022-07-23T00:37:59;11.18;;;6.15;;
35518;SDS011;21627;48.216;16.482;2022-07-23T00:40:27;7.55;;;5.00;;
35518;SDS011;21627;48.216;16.482;2022-07-23T00:42:56;7.20;;;5.68;;
35518;SDS011;21627;48.216;16.482;2022-07-23T00:45:23;9.18;;;5.30;;
35518;SDS011;21627;48.216;16.482;2022-07-23T00:47:50;12.50;;;7.00;;
35518;SDS011;21627;48.216;16.482;2022-07-23T00:50:17;7.13;;;5.15;;
35518;SDS011;21627;48.216;16.482;2022-07-23T00:52:45;8.88;;;6.22;;
35518;SDS011;21627;48.216;16.482;2022-07-23T00:55:12;9.52;;;5.93;;
35518;SDS011;21627;48.216;16.482;2022-07-23T00:57:41;14.82;;;6.00;;
35518;SDS011;21627;48.216;16.482;2022-07-23T01:00:10;9.10;;;5.68;;
35518;SDS011;21627;48.216;16.482;2022-07-23T01:02:40;10.27;;;6.50;;
35518;SDS011;21627;48.216;16.482;2022-07-23T01:05:08;10.65;;;5.97;;
35518;SDS011;21627;48.216;16.482;2022-07-23T01:07:36;8.93;;;6.10;;
35518;SDS011;21627;48.216;16.482;2022-07-23T01:10:04;14.82;;;6.38;;
35518;SDS011;21627;48.216;16.482;2022-07-23T01:12:52;9.18;;;6.32;;
35518;SDS011;21627;48.216;16.482;2022-07-23T01:15:19;12.25;;;6.22;;
35518;SDS011;21627;48.216;16.482;2022-07-23T01:17:47;7.90;;;6.00;;
35518;SDS011;21627;48.216;16.482;2022-07-23T01:20:15;7.85;;;6.10;;
35518;SDS011;21627;48.216;16.482;2022-07-23T01:22:42;14.07;;;5.68;;
35518;SDS011;21627;48.216;16.482;2022-07-23T01:25:10;9.55;;;5.70;;
35518;SDS011;21627;48.216;16.482;2022-07-23T01:27:38;19.95;;;6.25;;
35518;SDS011;21627;48.216;16.482;2022-07-23T01:30:05;10.60;;;6.00;;
35518;SDS011;21627;48.216;16.482;2022-07-23T01:32:33;12.60;;;5.95;;
35518;SDS011;21627;48.216;16.482;2022-07-23T01:35:00;12.38;;;6.35;;
35518;SDS011;21627;48.216;16.482;2022-07-23T01:37:28;12.80;;;6.13;;
35518;SDS011;21627;48.216;16.482;2022-07-23T01:39:55;13.00;;;6.45;;
35518;SDS011;21627;48.216;16.482;2022-07-23T01:42:22;10.88;;;6.07;;
35518;SDS011;21627;48.216;16.482;2022-07-23T01:44:51;15.25;;;6.18;;
35518;SDS011;21627;48.216;16.482;2022-07-23T01:47:18;8.10;;;5.75;;
35518;SDS011;21627;48.216;16.482;2022-07-23T01:49:45;14.70;;;6.32;;
35518;SDS011;21627;48.216;16.482;2022-07-23T01:52:12;12.57;;;6.10;;
35518;SDS011;21627;48.216;16.482;2022-07-23T01:54:39;10.35;;;6.38;;
35518;SDS011;21627;48.216;16.482;2022-07-23T01:57:07;11.05;;;6.63;;
35518;SDS011;21627;48.216;16.482;2022-07-23T01:59:35;11.93;;;6.85;;
35518;SDS011;21627;48.216;16.482;2022-07-23T02:02:02;10.02;;;6.97;;
35518;SDS011;21627;48.216;16.482;2022-07-23T02:04:30;10.63;;;6.80;;
35518;SDS011;21627;48.216;16.482;2022-07-23T02:06:58;11.15;;;7.03;;
35518;SDS011;21627;48.216;16.482;2022-07-23T02:09:25;11.95;;;6.78;;
35518;SDS011;21627;48.216;16.482;2022-07-23T02:11:52;9.15;;;7.10;;
35518;SDS011;21627;48.216;16.482;2022-07-23T02:14:19;9.07;;;6.65;;
35518;SDS011;21627;48.216;16.482;2022-07-23T02:16:46;9.13;;;6.55;;
35518;SDS011;21627;48.216;16.482;2022-07-23T02:19:14;10.15;;;6.75;;
35518;SDS011;21627;48.216;16.482;2022-07-23T02:21:41;9.57;;;6.63;;
35518;SDS011;21627;48.216;16.482;2022-07-23T02:24:09;8.45;;;6.55;;
35518;SDS011;21627;48.216;16.482;2022-07-23T02:26:36;8.68;;;6.38;;
35518;SDS011;21627;48.216;16.482;2022-07-23T02:29:04;11.27;;;6.03;;
35518;SDS011;21627;48.216;16.482;2022-07-23T02:31:31;11.00;;;6.03;;
35518;SDS011;21627;48.216;16.482;2022-07-23T02:34:00;6.68;;;5.45;;
35518;SDS011;21627;48.216;16.482;2022-07-23T02:36:28;10.82;;;6.63;;
35518;SDS011;21627;48.216;16.482;2022-07-23T02:38:55;10.43;;;6.28;;
35518;SDS011;21627;48.216;16.482;2022-07-23T02:41:23;10.57;;;6.65;;
35518;SDS011;21627;48.216;16.482;2022-07-23T02:43:50;9.05;;;5.93;;
35518;SDS011;21627;48.216;16.482;2022-07-23T02:46:18;8.18;;;6.15;;
35518;SDS011;21627;48.216;16.482;2022-07-23T02:48:45;10.02;;;6.55;;
35518;SDS011;21627;48.216;16.482;2022-07-23T02:51:12;10.30;;;6.43;;
35518;SDS011;21627;48.216;16.482;2022-07-23T02:53:40;11.57;;;5.68;;
35518;SDS011;21627;48.216;16.482;2022-07-23T02:56:08;15.20;;;6.53;;
35518;SDS011;21627;48.216;16.482;2022-07-23T02:58:35;10.10;;;6.20;;
35518;SDS011;21627;48.216;16.482;2022-07-23T03:01:03;10.00;;;5.97;;
35518;SDS011;21627;48.216;16.482;2022-07-23T03:03:31;17.10;;;6.22;;
35518;SDS011;21627;48.216;16.482;2022-07-23T03:05:59;10.90;;;6.07;;
35518;SDS011;21627;48.216;16.482;2022-07-23T03:08:26;8.05;;;5.97;;
35518;SDS011;21627;48.216;16.482;2022-07-23T03:10:53;9.93;;;5.90;;
35518;SDS011;21627;48.216;16.482;2022-07-23T03:13:21;11.50;;;6.00;;
35518;SDS011;21627;48.216;16.482;2022-07-23T03:15:48;9.30;;;5.88;;
35518;SDS011;21627;48.216;16.482;2022-07-23T03:18:15;9.45;;;6.05;;
35518;SDS011;21627;48.216;16.482;2022-07-23T03:20:42;7.40;;;5.78;;
35518;SDS011;21627;48.216;16.482;2022-07-23T03:23:09;10.55;;;6.90;;
35518;SDS011;21627;48.216;16.482;2022-07-23T03:25:37;11.43;;;6.55;;
35518;SDS011;21627;48.216;16.482;2022-07-23T03:28:04;10.45;;;6.88;;
35518;SDS011;21627;48.216;16.482;2022-07-23T03:30:31;9.70;;;6.13;;
35518;SDS011;21627;48.216;16.482;2022-07-23T03:32:58;8.82;;;6.03;;
35518;SDS011;21627;48.216;16.482;2022-07-23T03:35:25;9.57;;;6.70;;
35518;SDS011;21627;48.216;16.482;2022-07-23T03:37:53;9.27;;;6.57;;
35518;SDS011;21627;48.216;16.482;2022-07-23T03:40:20;7.70;;;6.15;;
35518;SDS011;21627;48.216;16.482;2022-07-23T03:42:47;9.18;;;6.70;;
35518;SDS011;21627;48.216;16.482;2022-07-23T03:45:14;9.40;;;6.75;;
35518;SDS011;21627;48.216;16.482;2022-07-23T03:47:42;9.85;;;6.55;;
35518;SDS011;21627;48.216;16.482;2022-07-23T03:50:10;11.18;;;6.82;;
35518;SDS011;21627;48.216;16.482;2022-07-23T03:52:38;9.57;;;6.72;;
35518;SDS011;21627;48.216;16.482;2022-07-23T03:55:05;11.10;;;7.07;;
35518;SDS011;21627;48.216;16.482;2022-07-23T03:57:33;9.93;;;7.53;;
35518;SDS011;21627;48.216;16.482;2022-07-23T04:00:01;7.75;;;6.90;;
35518;SDS011;21627;48.216;16.482;2022-07-23T04:02:32;8.82;;;7.55;;
35518;SDS011;21627;48.216;16.482;2022-07-23T04:04:59;8.57;;;6.90;;
35518;SDS011;21627;48.216;16.482;2022-07-23T04:07:27;10.77;;;7.97;;
35518;SDS011;21627;48.216;16.482;2022-07-23T04:09:54;17.88;;;8.07;;
35518;SDS011;21627;48.216;16.482;2022-07-23T04:12:21;12.40;;;8.00;;
35518;SDS011;21627;48.216;16.482;2022-07-23T04:14:49;10.00;;;7.20;;
35518;SDS011;21627;48.216;16.482;2022-07-23T04:17:16;17.73;;;7.43;;
35518;SDS011;21627;48.216;16.482;2022-07-23T04:19:43;26.60;;;8.73;;
35518;SDS011;21627;48.216;16.482;2022-07-23T04:22:11;32.85;;;9.45;;
35518;SDS011;21627;48.216;16.482;2022-07-23T04:24:38;42.55;;;10.82;;
35518;SDS011;21627;48.216;16.482;2022-07-23T04:27:05;13.77;;;7.43;;
35518;SDS011;21627;48.216;16.482;2022-07-23T04:29:33;17.27;;;7.80;;
35518;SDS011;21627;48.216;16.482;2022-07-23T04:32:00;32.78;;;10.57;;
35518;SDS011;21627;48.216;16.482;2022-07-23T04:34:28;32.47;;;9.80;;
35518;SDS011;21627;48.216;16.482;2022-07-23T04:36:55;29.20;;;9.27;;
35518;SDS011;21627;48.216;16.482;2022-07-23T04:39:22;17.77;;;8.98;;
35518;SDS011;21627;48.216;16.482;2022-07-23T04:41:49;36.53;;;10.20;;
35518;SDS011;21627;48.216;16.482;2022-07-23T04:44:17;15.43;;;7.15;;
35518;SDS011;21627;48.216;16.482;2022-07-23T04:46:44;11.05;;;7.57;;
35518;SDS011;21627;48.216;16.482;2022-07-23T04:49:12;17.35;;;7.82;;
35518;SDS011;21627;48.216;16.482;2022-07-23T04:51:40;15.18;;;8.05;;
35518;SDS011;21627;48.216;16.482;2022-07-23T04:54:07;15.35;;;7.70;;
35518;SDS011;21627;48.216;16.482;2022-07-23T04:56:34;12.40;;;7.32;;
35518;SDS011;21627;48.216;16.482;2022-07-23T04:59:01;10.52;;;7.40;;
35518;SDS011;21627;48.216;16.482;2022-07-23T05:01:29;10.48;;;6.88;;
35518;SDS011;21627;48.216;16.482;2022-07-23T05:03:56;16.67;;;7.65;;
35518;SDS011;21627;48.216;16.482;2022-07-23T05:06:23;11.55;;;7.38;;
35518;SDS011;21627;48.216;16.482;2022-07-23T05:08:50;13.10;;;7.72;;
35518;SDS011;21627;48.216;16.482;2022-07-23T05:11:17;11.57;;;7.50;;
35518;SDS011;21627;48.216;16.482;2022-07-23T05:13:51;10.18;;;7.88;;
35518;SDS011;21627;48.216;16.482;2022-07-23T05:16:19;10.55;;;7.38;;
35518;SDS011;21627;48.216;16.482;2022-07-23T05:18:46;9.93;;;7.60;;
35518;SDS011;21627;48.216;16.482;2022-07-23T05:21:13;14.38;;;7.65;;
35518;SDS011;21627;48.216;16.482;2022-07-23T05:23:40;14.00;;;7.88;;
35518;SDS011;21627;48.216;16.482;2022-07-23T05:26:07;13.45;;;8.50;;
35518;SDS011;21627;48.216;16.482;2022-07-23T05:28:35;12.60;;;8.05;;
35518;SDS011;21627;48.216;16.482;2022-07-23T05:31:02;13.98;;;8.23;;
35518;SDS011;21627;48.216;16.482;2022-07-23T05:33:30;10.98;;;7.22;;
35518;SDS011;21627;48.216;16.482;2022-07-23T05:36:03;10.50;;;7.25;;
35518;SDS011;21627;48.216;16.482;2022-07-23T05:38:31;9.23;;;7.70;;
35518;SDS011;21627;48.216;16.482;2022-07-23T05:40:59;10.65;;;7.63;;
35518;SDS011;21627;48.216;16.482;2022-07-23T05:43:27;13.32;;;7.65;;
35518;SDS011;21627;48.216;16.482;2022-07-23T05:45:54;12.68;;;7.40;;
35518;SDS011;21627;48.216;16.482;2022-07-23T05:48:21;14.65;;;8.20;;
35518;SDS011;21627;48.216;16.482;2022-07-23T05:50:49;13.13;;;7.95;;
35518;SDS011;21627;48.216;16.482;2022-07-23T05:53:16;10.75;;;7.88;;
35518;SDS011;21627;48.216;16.482;2022-07-23T05:55:43;10.73;;;7.25;;
35518;SDS011;21627;48.216;16.482;2022-07-23T05:58:10;10.88;;;7.22;;
35518;SDS011;21627;48.216;16.482;2022-07-23T06:00:37;14.25;;;7.60;;
35518;SDS011;21627;48.216;16.482;2022-07-23T06:03:05;12.77;;;7.75;;
35518;SDS011;21627;48.216;16.482;2022-07-23T06:05:32;11.45;;;7.28;;
35518;SDS011;21627;48.216;16.482;2022-07-23T06:08:00;11.73;;;7.72;;
35518;SDS011;21627;48.216;16.482;2022-07-23T06:10:27;9.65;;;7.05;;
35518;SDS011;21627;48.216;16.482;2022-07-23T06:12:54;12.50;;;7.70;;
35518;SDS011;21627;48.216;16.482;2022-07-23T06:15:27;10.20;;;7.28;;
35518;SDS011;21627;48.216;16.482;2022-07-23T06:17:55;11.73;;;7.45;;
35518;SDS011;21627;48.216;16.482;2022-07-23T06:20:22;11.43;;;7.50;;
35518;SDS011;21627;48.216;16.482;2022-07-23T06:22:49;13.98;;;7.13;;
35518;SDS011;21627;48.216;16.482;2022-07-23T06:25:17;9.30;;;7.60;;
35518;SDS011;21627;48.216;16.482;2022-07-23T06:27:45;12.40;;;7.63;;
35518;SDS011;21627;48.216;16.482;2022-07-23T06:30:13;10.73;;;7.30;;
35518;SDS011;21627;48.216;16.482;2022-07-23T06:32:47;12.98;;;7.35;;
35518;SDS011;21627;48.216;16.482;2022-07-23T06:35:15;9.88;;;7.63;;
35518;SDS011;21627;48.216;16.482;2022-07-23T06:37:44;7.78;;;6.90;;
35518;SDS011;21627;48.216;16.482;2022-07-23T06:40:13;10.98;;;7.43;;
35518;SDS011;21627;48.216;16.482;2022-07-23T06:42:40;12.32;;;8.80;;
35518;SDS011;21627;48.216;16.482;2022-07-23T06:45:08;10.35;;;6.70;;
35518;SDS011;21627;48.216;16.482;2022-07-23T06:47:35;11.98;;;8.32;;
35518;SDS011;21627;48.216;16.482;2022-07-23T06:50:03;12.40;;;7.22;;
35518;SDS011;21627;48.216;16.482;2022-07-23T06:52:31;10.30;;;6.97;;
35518;SDS011;21627;48.216;16.482;2022-07-23T06:54:59;11.55;;;7.35;;
35518;SDS011;21627;48.216;16.482;2022-07-23T06:57:26;9.20;;;6.63;;
35518;SDS011;21627;48.216;16.482;2022-07-23T06:59:54;7.53;;;6.60;;
35518;SDS011;21627;48.216;16.482;2022-07-23T07:02:21;13.60;;;7.28;;
35518;SDS011;21627;48.216;16.482;2022-07-23T07:04:49;8.68;;;6.10;;
35518;SDS011;21627;48.216;16.482;2022-07-23T07:07:16;10.63;;;6.22;;
35518;SDS011;21627;48.216;16.482;2022-07-23T07:09:43;9.05;;;5.88;;
35518;SDS011;21627;48.216;16.482;2022-07-23T07:12:13;8.75;;;5.78;;
35518;SDS011;21627;48.216;16.482;2022-07-23T07:14:41;7.30;;;5.63;;
35518;SDS011;21627;48.216;16.482;2022-07-23T07:17:08;9.13;;;5.55;;
35518;SDS011;21627;48.216;16.482;2022-07-23T07:19:37;9.20;;;5.28;;
35518;SDS011;21627;48.216;16.482;2022-07-23T07:22:04;6.22;;;5.22;;
35518;SDS011;21627;48.216;16.482;2022-07-23T07:24:31;7.68;;;4.85;;
35518;SDS011;21627;48.216;16.482;2022-07-23T07:27:03;6.35;;;4.40;;
35518;SDS011;21627;48.216;16.482;2022-07-23T07:29:31;9.52;;;4.68;;
35518;SDS011;21627;48.216;16.482;2022-07-23T07:31:58;4.78;;;3.88;;
35518;SDS011;21627;48.216;16.482;2022-07-23T07:34:25;5.22;;;3.92;;
35518;SDS011;21627;48.216;16.482;2022-07-23T07:36:52;7.82;;;3.35;;
35518;SDS011;21627;48.216;16.482;2022-07-23T07:39:20;8.30;;;4.07;;
35518;SDS011;21627;48.216;16.482;2022-07-23T07:41:47;8.68;;;3.85;;
35518;SDS011;21627;48.216;16.482;2022-07-23T07:44:14;7.13;;;3.58;;
35518;SDS011;21627;48.216;16.482;2022-07-23T07:46:41;6.03;;;3.60;;
35518;SDS011;21627;48.216;16.482;2022-07-23T07:49:08;4.38;;;3.38;;
35518;SDS011;21627;48.216;16.482;2022-07-23T07:51:41;4.95;;;3.40;;
35518;SDS011;21627;48.216;16.482;2022-07-23T07:54:13;6.43;;;3.78;;
35518;SDS011;21627;48.216;16.482;2022-07-23T07:56:41;7.72;;;3.22;;
35518;SDS011;21627;48.216;16.482;2022-07-23T07:59:08;7.18;;;2.97;;
35518;SDS011;21627;48.216;16.482;2022-07-23T08:01:37;10.35;;;3.75;;
35518;SDS011;21627;48.216;16.482;2022-07-23T08:04:04;6.32;;;3.50;;
35518;SDS011;21627;48.216;16.482;2022-07-23T08:06:32;7.68;;;3.30;;
35518;SDS011;21627;48.216;16.482;2022-07-23T08:08:59;19.65;;;4.72;;
35518;SDS011;21627;48.216;16.482;2022-07-23T08:11:26;6.75;;;3.50;;
35518;SDS011;21627;48.216;16.482;2022-07-23T08:13:53;6.53;;;3.53;;
35518;SDS011;21627;48.216;16.482;2022-07-23T08:16:21;5.20;;;3.22;;
35518;SDS011;21627;48.216;16.482;2022-07-23T08:18:48;5.30;;;2.95;;
35518;SDS011;21627;48.216;16.482;2022-07-23T08:21:15;6.93;;;2.80;;
35518;SDS011;21627;48.216;16.482;2022-07-23T08:23:42;3.60;;;2.95;;
35518;SDS011;21627;48.216;16.482;2022-07-23T08:26:11;5.70;;;3.20;;
35518;SDS011;21627;48.216;16.482;2022-07-23T08:28:38;8.10;;;3.17;;
35518;SDS011;21627;48.216;16.482;2022-07-23T08:31:05;7.55;;;3.28;;
35518;SDS011;21627;48.216;16.482;2022-07-23T08:33:33;6.95;;;3.45;;
35518;SDS011;21627;48.216;16.482;2022-07-23T08:36:01;5.10;;;3.50;;
35518;SDS011;21627;48.216;16.482;2022-07-23T08:38:30;6.78;;;3.70;;
35518;SDS011;21627;48.216;16.482;2022-07-23T08:40:59;5.53;;;3.28;;
35518;SDS011;21627;48.216;16.482;2022-07-23T08:43:27;7.03;;;3.97;;
35518;SDS011;21627;48.216;16.482;2022-07-23T08:45:57;5.35;;;3.70;;
35518;SDS011;21627;48.216;16.482;2022-07-23T08:48:28;5.00;;;3.72;;
35518;SDS011;21627;48.216;16.482;2022-07-23T08:51:04;4.72;;;3.55;;
35518;SDS011;21627;48.216;16.482;2022-07-23T08:53:33;3.92;;;3.38;;
35518;SDS011;21627;48.216;16.482;2022-07-23T08:56:05;6.85;;;3.35;;
35518;SDS011;21627;48.216;16.482;2022-07-23T08:58:35;8.45;;;4.35;;
35518;SDS011;21627;48.216;16.482;2022-07-23T09:01:03;4.50;;;3.38;;
35518;SDS011;21627;48.216;16.482;2022-07-23T09:03:32;6.35;;;3.80;;
35518;SDS011;21627;48.216;16.482;2022-07-23T09:06:02;4.43;;;3.20;;
35518;SDS011;21627;48.216;16.482;2022-07-23T09:11:08;6.13;;;3.65;;
35518;SDS011;21627;48.216;16.482;2022-07-23T09:13:41;12.02;;;3.30;;
35518;SDS011;21627;48.216;16.482;2022-07-23T09:18:50;4.80;;;3.70;;
35518;SDS011;21627;48.216;16.482;2022-07-23T09:21:26;4.78;;;3.30;;
35518;SDS011;21627;48.216;16.482;2022-07-23T09:26:36;3.90;;;3.22;;
35518;SDS011;21627;48.216;16.482;2022-07-23T09:34:26;7.63;;;3.55;;
35518;SDS011;21627;48.216;16.482;2022-07-23T09:36:58;4.93;;;3.60;;
35518;SDS011;21627;48.216;16.482;2022-07-23T09:39:41;7.03;;;4.03;;
35518;SDS011;21627;48.216;16.482;2022-07-23T09:42:13;4.57;;;3.58;;
35518;SDS011;21627;48.216;16.482;2022-07-23T09:44:53;4.72;;;3.80;;
35518;SDS011;21627;48.216;16.482;2022-07-23T09:47:23;3.95;;;3.50;;
35518;SDS011;21627;48.216;16.482;2022-07-23T09:52:35;5.18;;;3.50;;
35518;SDS011;21627;48.216;16.482;2022-07-23T09:55:13;5.85;;;3.83;;
35518;SDS011;21627;48.216;16.482;2022-07-23T09:57:43;5.18;;;3.90;;
35518;SDS011;21627;48.216;16.482;2022-07-23T10:00:13;5.78;;;3.95;;
35518;SDS011;21627;48.216;16.482;2022-07-23T10:02:40;9.13;;;3.65;;
35518;SDS011;21627;48.216;16.482;2022-07-23T10:05:08;9.57;;;3.97;;
35518;SDS011;21627;48.216;16.482;2022-07-23T10:07:39;4.18;;;3.65;;
35518;SDS011;21627;48.216;16.482;2022-07-23T10:10:08;5.57;;;4.03;;
35518;SDS011;21627;48.216;16.482;2022-07-23T10:12:37;5.80;;;3.90;;
35518;SDS011;21627;48.216;16.482;2022-07-23T10:15:17;5.25;;;4.25;;
35518;SDS011;21627;48.216;16.482;2022-07-23T10:17:45;5.47;;;4.15;;
35518;SDS011;21627;48.216;16.482;2022-07-23T10:20:12;4.53;;;3.97;;
35518;SDS011;21627;48.216;16.482;2022-07-23T10:22:44;6.53;;;4.68;;
35518;SDS011;21627;48.216;16.482;2022-07-23T10:25:42;5.95;;;4.40;;
35518;SDS011;21627;48.216;16.482;2022-07-23T10:40:12;4.90;;;3.92;;
35518;SDS011;21627;48.216;16.482;2022-07-23T10:42:46;7.38;;;4.40;;
35518;SDS011;21627;48.216;16.482;2022-07-23T10:51:09;5.72;;;4.43;;
35518;SDS011;21627;48.216;16.482;2022-07-23T10:59:22;5.32;;;4.35;;
35518;SDS011;21627;48.216;16.482;2022-07-23T11:01:50;5.22;;;4.43;;
35518;SDS011;21627;48.216;16.482;2022-07-23T11:04:18;8.52;;;4.38;;
35518;SDS011;21627;48.216;16.482;2022-07-23T11:18:19;14.77;;;5.30;;
35518;SDS011;21627;48.216;16.482;2022-07-23T11:20:22;5.68;;;4.53;;
35518;SDS011;21627;48.216;16.482;2022-07-23T11:22:57;5.18;;;4.35;;
35518;SDS011;21627;48.216;16.482;2022-07-23T11:27:55;5.40;;;4.90;;
35518;SDS011;21627;48.216;16.482;2022-07-23T11:30:45;6.75;;;5.38;;
35518;SDS011;21627;48.216;16.482;2022-07-23T11:35:42;5.93;;;5.10;;
35518;SDS011;21627;48.216;16.482;2022-07-23T11:38:22;6.50;;;4.65;;
35518;SDS011;21627;48.216;16.482;2022-07-23T11:40:51;6.40;;;4.97;;
35518;SDS011;21627;48.216;16.482;2022-07-23T11:43:21;9.98;;;4.78;;
35518;SDS011;21627;48.216;16.482;2022-07-23T11:45:51;7.65;;;4.70;;
35518;SDS011;21627;48.216;16.482;2022-07-23T11:48:27;6.80;;;4.80;;
35518;SDS011;21627;48.216;16.482;2022-07-23T11:51:01;10.43;;;5.85;;
35518;SDS011;21627;48.216;16.482;2022-07-23T11:53:30;6.18;;;5.20;;
35518;SDS011;21627;48.216;16.482;2022-07-23T11:56:03;5.70;;;4.72;;
35518;SDS011;21627;48.216;16.482;2022-07-23T11:58:37;9.60;;;5.50;;
35518;SDS011;21627;48.216;16.482;2022-07-23T12:01:05;9.48;;;5.13;;
35518;SDS011;21627;48.216;16.482;2022-07-23T12:03:48;6.65;;;4.90;;
35518;SDS011;21627;48.216;16.482;2022-07-23T12:06:17;9.38;;;5.35;;
35518;SDS011;21627;48.216;16.482;2022-07-23T12:08:45;10.70;;;5.32;;
35518;SDS011;21627;48.216;16.482;2022-07-23T12:11:12;6.65;;;5.40;;
35518;SDS011;21627;48.216;16.482;2022-07-23T12:13:39;7.97;;;5.28;;
35518;SDS011;21627;48.216;16.482;2022-07-23T12:16:07;10.57;;;5.75;;
35518;SDS011;21627;48.216;16.482;2022-07-23T12:18:35;14.73;;;6.28;;
35518;SDS011;21627;48.216;16.482;2022-07-23T12:21:03;11.38;;;5.38;;
35518;SDS011;21627;48.216;16.482;2022-07-23T12:23:33;5.80;;;5.18;;
35518;SDS011;21627;48.216;16.482;2022-07-23T12:26:01;9.65;;;5.32;;
35518;SDS011;21627;48.216;16.482;2022-07-23T12:28:30;10.02;;;5.10;;
35518;SDS011;21627;48.216;16.482;2022-07-23T12:30:59;6.95;;;5.05;;
35518;SDS011;21627;48.216;16.482;2022-07-23T12:33:28;10.50;;;5.15;;
35518;SDS011;21627;48.216;16.482;2022-07-23T12:36:06;9.85;;;5.15;;
35518;SDS011;21627;48.216;16.482;2022-07-23T12:38:57;7.18;;;5.00;;
35518;SDS011;21627;48.216;16.482;2022-07-23T12:41:23;6.25;;;4.78;;
35518;SDS011;21627;48.216;16.482;2022-07-23T12:43:50;6.00;;;4.85;;
35518;SDS011;21627;48.216;16.482;2022-07-23T12:46:21;6.63;;;4.55;;
35518;SDS011;21627;48.216;16.482;2022-07-23T12:53:58;6.25;;;4.93;;
35518;SDS011;21627;48.216;16.482;2022-07-23T12:56:34;6.70;;;5.32;;
35518;SDS011;21627;48.216;16.482;2022-07-23T13:01:35;6.97;;;4.65;;
35518;SDS011;21627;48.216;16.482;2022-07-23T13:09:23;5.40;;;4.32;;
35518;SDS011;21627;48.216;16.482;2022-07-23T13:11:58;7.50;;;4.32;;
35518;SDS011;21627;48.216;16.482;2022-07-23T13:14:26;4.97;;;3.85;;
35518;SDS011;21627;48.216;16.482;2022-07-23T13:16:54;9.43;;;4.55;;
35518;SDS011;21627;48.216;16.482;2022-07-23T13:19:25;6.45;;;4.18;;
35518;SDS011;21627;48.216;16.482;2022-07-23T13:21:53;7.57;;;3.72;;
35518;SDS011;21627;48.216;16.482;2022-07-23T13:24:21;5.55;;;3.50;;
35518;SDS011;21627;48.216;16.482;2022-07-23T13:26:48;5.45;;;3.20;;
35518;SDS011;21627;48.216;16.482;2022-07-23T13:29:17;4.68;;;2.83;;
35518;SDS011;21627;48.216;16.482;2022-07-23T13:31:46;8.68;;;3.92;;
35518;SDS011;21627;48.216;16.482;2022-07-23T13:34:14;6.28;;;3.80;;
35518;SDS011;21627;48.216;16.482;2022-07-23T13:36:41;9.52;;;3.83;;
35518;SDS011;21627;48.216;16.482;2022-07-23T13:39:10;8.85;;;3.15;;
35518;SDS011;21627;48.216;16.482;2022-07-23T13:41:38;6.75;;;2.58;;
35518;SDS011;21627;48.216;16.482;2022-07-23T13:44:14;3.55;;;2.80;;
35518;SDS011;21627;48.216;16.482;2022-07-23T13:46:42;4.57;;;2.50;;
35518;SDS011;21627;48.216;16.482;2022-07-23T13:49:09;3.58;;;2.33;;
35518;SDS011;21627;48.216;16.482;2022-07-23T13:51:36;5.00;;;2.30;;
35518;SDS011;21627;48.216;16.482;2022-07-23T13:54:03;2.75;;;2.05;;
35518;SDS011;21627;48.216;16.482;2022-07-23T13:56:34;3.95;;;2.65;;
35518;SDS011;21627;48.216;16.482;2022-07-23T13:59:02;3.92;;;2.30;;
35518;SDS011;21627;48.216;16.482;2022-07-23T14:01:32;3.28;;;2.33;;
35518;SDS011;21627;48.216;16.482;2022-07-23T14:04:15;4.82;;;2.28;;
35518;SDS011;21627;48.216;16.482;2022-07-23T14:06:44;5.85;;;2.30;;
35518;SDS011;21627;48.216;16.482;2022-07-23T14:09:31;2.53;;;2.20;;
35518;SDS011;21627;48.216;16.482;2022-07-23T14:12:00;7.25;;;2.17;;
35518;SDS011;21627;48.216;16.482;2022-07-23T14:14:27;3.33;;;1.95;;
35518;SDS011;21627;48.216;16.482;2022-07-23T14:16:55;2.92;;;1.77;;
35518;SDS011;21627;48.216;16.482;2022-07-23T14:19:23;3.03;;;2.03;;
35518;SDS011;21627;48.216;16.482;2022-07-23T14:21:50;4.40;;;1.90;;
35518;SDS011;21627;48.216;16.482;2022-07-23T14:24:17;4.10;;;2.20;;
35518;SDS011;21627;48.216;16.482;2022-07-23T14:26:47;3.10;;;2.13;;
35518;SDS011;21627;48.216;16.482;2022-07-23T14:29:14;4.03;;;2.20;;
35518;SDS011;21627;48.216;16.482;2022-07-23T14:31:42;2.83;;;2.03;;
35518;SDS011;21627;48.216;16.482;2022-07-23T14:34:09;4.55;;;1.90;;
35518;SDS011;21627;48.216;16.482;2022-07-23T14:36:38;3.80;;;2.20;;
35518;SDS011;21627;48.216;16.482;2022-07-23T14:39:05;2.00;;;1.80;;
35518;SDS011;21627;48.216;16.482;2022-07-23T14:41:36;7.68;;;1.67;;
35518;SDS011;21627;48.216;16.482;2022-07-23T14:44:03;4.32;;;1.50;;
35518;SDS011;21627;48.216;16.482;2022-07-23T14:46:31;2.33;;;1.90;;
35518;SDS011;21627;48.216;16.482;2022-07-23T14:48:58;2.80;;;2.08;;
35518;SDS011;21627;48.216;16.482;2022-07-23T14:51:26;4.20;;;1.75;;
35518;SDS011;21627;48.216;16.482;2022-07-23T14:53:54;2.75;;;2.00;;
35518;SDS011;21627;48.216;16.482;2022-07-23T14:56:21;2.03;;;1.75;;
35518;SDS011;21627;48.216;16.482;2022-07-23T14:58:48;2.90;;;1.80;;
35518;SDS011;21627;48.216;16.482;2022-07-23T15:01:16;3.30;;;2.00;;
35518;SDS011;21627;48.216;16.482;2022-07-23T15:03:43;2.63;;;1.92;;
35518;SDS011;21627;48.216;16.482;2022-07-23T15:06:10;7.43;;;2.60;;
35518;SDS011;21627;48.216;16.482;2022-07-23T15:08:38;4.45;;;2.30;;
35518;SDS011;21627;48.216;16.482;2022-07-23T15:11:05;6.20;;;2.20;;
35518;SDS011;21627;48.216;16.482;2022-07-23T15:13:36;4.63;;;2.20;;
35518;SDS011;21627;48.216;16.482;2022-07-23T15:16:05;3.72;;;2.25;;
35518;SDS011;21627;48.216;16.482;2022-07-23T15:18:36;7.95;;;2.65;;
35518;SDS011;21627;48.216;16.482;2022-07-23T15:21:03;3.65;;;2.45;;
35518;SDS011;21627;48.216;16.482;2022-07-23T15:23:33;6.10;;;2.55;;
35518;SDS011;21627;48.216;16.482;2022-07-23T15:26:01;6.47;;;2.83;;
35518;SDS011;21627;48.216;16.482;2022-07-23T15:28:28;4.35;;;2.72;;
35518;SDS011;21627;48.216;16.482;2022-07-23T15:30:55;8.93;;;3.00;;
35518;SDS011;21627;48.216;16.482;2022-07-23T15:33:23;7.00;;;2.80;;
35518;SDS011;21627;48.216;16.482;2022-07-23T15:35:51;4.95;;;2.60;;
35518;SDS011;21627;48.216;16.482;2022-07-23T15:38:23;5.40;;;3.25;;
35518;SDS011;21627;48.216;16.482;2022-07-23T15:40:55;4.47;;;2.83;;
35518;SDS011;21627;48.216;16.482;2022-07-23T15:43:23;4.78;;;2.92;;
35518;SDS011;21627;48.216;16.482;2022-07-23T15:45:52;9.32;;;2.80;;
35518;SDS011;21627;48.216;16.482;2022-07-23T15:48:20;7.68;;;3.05;;
35518;SDS011;21627;48.216;16.482;2022-07-23T15:50:48;4.30;;;2.63;;